Time;durP1;ratioP1;P1;durP2;ratioP2;P2;SDS_P1;SDS_P2;PMS_P1;PMS_P2;Temp;Humidity;BMP_temperature;BMP_pressure;BME280_temperature;BME280_humidity;BME280_pressure;Samples;Min_cycle;Max_cycle;Signal;HPM_P1;HPM_P2
2024/02/05 00:01:12;;;;;;;17.33;4.07;;;;;;;9.84;100.00;101752.19;4992578;28;20034;-80
2024/02/05 00:03:37;;;;;;;20.92;4.95;;;;;;;9.92;100.00;101747.16;5009170;28;20177;-79
2024/02/05 00:06:04;;;;;;;19.00;3.83;;;;;;;9.92;100.00;101747.16;4993632;28;20042;-79
2024/02/05 00:08:29;;;;;;;18.77;4.18;;;;;;;9.91;100.00;101748.13;5008551;28;20038;-78
2024/02/05 00:10:55;;;;;;;16.70;4.05;;;;;;;9.97;100.00;101760.56;5009765;28;20034;-79
2024/02/05 00:13:23;;;;;;;17.55;4.32;;;;;;;9.84;100.00;101754.78;5011587;28;20084;-80
2024/02/05 00:15:48;;;;;;;23.85;4.65;;;;;;;9.80;100.00;101753.38;4992840;28;20069;-79
2024/02/05 00:18:14;;;;;;;22.77;4.43;;;;;;;9.78;100.00;101760.47;5007008;28;20081;-78
2024/02/05 00:20:39;;;;;;;28.50;4.30;;;;;;;9.85;100.00;101757.25;5005495;28;21982;-79
2024/02/05 00:23:05;;;;;;;15.60;4.28;;;;;;;9.92;100.00;101754.94;5011248;28;20029;-78
2024/02/05 00:25:31;;;;;;;18.63;4.75;;;;;;;9.91;100.00;101777.44;5008939;28;20041;-78
2024/02/05 00:27:57;;;;;;;20.75;4.38;;;;;;;9.94;100.00;101756.47;5012722;28;20041;-78
2024/02/05 00:30:22;;;;;;;25.42;4.70;;;;;;;9.89;100.00;101768.19;5008001;28;20045;-79
2024/02/05 00:32:48;;;;;;;21.58;5.60;;;;;;;9.89;100.00;101763.00;4988768;28;20034;-79
2024/02/05 00:35:13;;;;;;;24.58;4.63;;;;;;;9.93;100.00;101757.41;5012636;28;20106;-78
2024/02/05 00:37:39;;;;;;;19.15;4.38;;;;;;;9.93;100.00;101761.78;4992783;28;20034;-78
2024/02/05 00:40:05;;;;;;;40.53;4.72;;;;;;;10.00;100.00;101755.13;5009441;28;20096;-78
2024/02/05 00:42:31;;;;;;;30.70;4.90;;;;;;;9.97;100.00;101763.16;5006432;28;20022;-79
2024/02/05 00:44:57;;;;;;;27.27;4.57;;;;;;;9.90;100.00;101757.66;5022677;28;20124;-79
2024/02/05 00:47:22;;;;;;;27.40;5.22;;;;;;;9.85;100.00;101759.00;5010191;28;20034;-79
2024/02/05 00:49:48;;;;;;;29.85;4.40;;;;;;;9.87;100.00;101757.94;5004104;28;20038;-79
2024/02/05 00:52:14;;;;;;;28.85;5.15;;;;;;;9.93;100.00;101754.81;5007555;28;20025;-79
2024/02/05 00:54:40;;;;;;;25.70;4.28;;;;;;;9.89;100.00;101745.66;5008034;28;20056;-78
2024/02/05 00:57:05;;;;;;;27.25;5.20;;;;;;;9.87;100.00;101757.94;5006594;28;20033;-79
2024/02/05 00:59:31;;;;;;;33.65;5.10;;;;;;;9.90;100.00;101764.63;5003982;28;20046;-77
2024/02/05 01:01:56;;;;;;;27.42;4.57;;;;;;;9.82;100.00;101759.25;5022185;28;20037;-78
2024/02/05 01:04:22;;;;;;;24.98;5.68;;;;;;;9.85;100.00;101756.41;5022089;28;20451;-79
2024/02/05 01:06:48;;;;;;;28.48;5.97;;;;;;;9.89;100.00;101750.84;5005529;28;20041;-79
2024/02/05 01:09:14;;;;;;;37.22;7.00;;;;;;;9.87;100.00;101763.13;5004508;28;20061;-78
2024/02/05 01:11:39;;;;;;;32.38;5.97;;;;;;;9.89;100.00;101760.41;5005970;28;20052;-78
2024/02/05 01:14:05;;;;;;;27.00;4.88;;;;;;;9.93;100.00;101756.59;5001890;28;20042;-79
2024/02/05 01:16:31;;;;;;;26.35;5.47;;;;;;;9.93;100.00;101760.00;4991228;28;21233;-80
2024/02/05 01:18:56;;;;;;;24.77;4.80;;;;;;;9.89;100.00;101763.81;5007239;28;20036;-78
2024/02/05 01:21:22;;;;;;;27.02;4.63;;;;;;;9.80;100.00;101750.81;4999932;28;20030;-79
2024/02/05 01:23:48;;;;;;;22.83;6.82;;;;;;;9.83;100.00;101756.56;4998702;28;20736;-78
2024/02/05 01:26:14;;;;;;;24.38;5.35;;;;;;;9.84;100.00;101753.00;5000465;28;20057;-79
2024/02/05 01:28:39;;;;;;;29.58;5.38;;;;;;;9.87;100.00;101754.50;5004017;28;20041;-77
2024/02/05 01:31:08;;;;;;;30.58;7.45;;;;;;;9.87;100.00;101757.09;5021364;28;20030;-78
2024/02/05 01:33:34;;;;;;;29.33;5.45;;;;;;;9.81;100.00;101761.00;5016380;28;20046;-78
2024/02/05 01:35:59;;;;;;;30.63;5.93;;;;;;;9.85;100.00;101733.94;5001460;28;20041;-79
2024/02/05 01:38:25;;;;;;;34.72;6.07;;;;;;;9.87;100.00;101739.81;5005088;28;20033;-78
2024/02/05 01:40:50;;;;;;;31.90;6.35;;;;;;;9.83;100.00;101737.56;4986726;28;20061;-79
2024/02/05 01:43:17;;;;;;;31.30;5.57;;;;;;;9.80;100.00;101738.66;5009111;28;20038;-79
2024/02/05 01:45:43;;;;;;;24.05;5.20;;;;;;;9.80;100.00;101741.25;5007026;28;20037;-79
2024/02/05 01:48:09;;;;;;;31.13;6.22;;;;;;;9.77;100.00;101738.91;5012997;28;20029;-79
2024/02/05 01:50:37;;;;;;;29.77;7.13;;;;;;;9.86;100.00;101742.50;5028781;28;20077;-79
2024/02/05 01:53:04;;;;;;;38.95;6.90;;;;;;;9.81;100.00;101734.28;5007690;28;20084;-78
2024/02/05 01:55:31;;;;;;;32.05;5.95;;;;;;;9.79;100.00;101742.19;4999855;28;20034;-79
2024/02/05 01:57:57;;;;;;;29.98;6.30;;;;;;;9.82;100.00;101736.75;5005736;28;20103;-79
2024/02/05 02:00:28;;;;;;;39.60;9.15;;;;;;;9.85;100.00;101738.25;5004766;28;20038;-79
2024/02/05 02:02:54;;;;;;;27.05;6.60;;;;;;;9.87;100.00;101739.81;5008916;28;20041;-79
2024/02/05 02:05:21;;;;;;;40.38;6.82;;;;;;;9.91;100.00;101730.81;4988787;28;20034;-80
2024/02/05 02:07:47;;;;;;;40.00;6.45;;;;;;;9.89;100.00;101732.72;5002324;28;20079;-80
2024/02/05 02:10:13;;;;;;;37.65;7.13;;;;;;;9.89;100.00;101740.50;5002821;28;20550;-79
2024/02/05 02:12:39;;;;;;;25.95;6.07;;;;;;;9.93;100.00;101726.31;5005895;28;20026;-78
2024/02/05 02:15:05;;;;;;;28.92;6.07;;;;;;;9.91;100.00;101719.63;5009878;28;20061;-78
2024/02/05 02:17:34;;;;;;;39.35;6.97;;;;;;;9.85;100.00;101733.94;5007952;28;20029;-78
2024/02/05 02:20:00;;;;;;;43.17;6.97;;;;;;;9.79;100.00;101729.25;5011882;28;20396;-78
2024/02/05 02:22:35;;;;;;;33.67;7.65;;;;;;;9.87;100.00;101726.84;5013163;28;20038;-78
2024/02/05 02:25:02;;;;;;;35.60;7.15;;;;;;;9.84;100.00;101721.91;5007994;28;20037;-79
2024/02/05 02:27:28;;;;;;;32.10;5.90;;;;;;;9.77;100.00;101725.16;5012353;28;20069;-79
2024/02/05 02:29:54;;;;;;;38.47;6.38;;;;;;;9.85;100.00;101726.16;5010137;28;20064;-79
2024/02/05 02:32:31;;;;;;;29.85;5.57;;;;;;;9.91;100.00;101724.81;5012132;28;20586;-79
2024/02/05 02:35:04;;;;;;;29.20;5.70;;;;;;;9.85;100.00;101733.94;5023353;28;20054;-78
2024/02/05 02:37:35;;;;;;;35.53;7.65;;;;;;;9.89;100.00;101734.50;4994955;28;20045;-80
2024/02/05 02:40:11;;;;;;;35.88;8.23;;;;;;;9.84;100.00;101742.63;5011678;28;20030;-78
2024/02/05 02:42:42;;;;;;;42.30;7.88;;;;;;;9.88;100.00;101731.06;5016252;28;20052;-78
2024/02/05 02:45:10;;;;;;;37.08;7.10;;;;;;;9.77;100.00;101725.97;5026418;28;20045;-82
2024/02/05 02:47:36;;;;;;;39.15;7.93;;;;;;;9.83;100.00;101727.22;5029241;28;20041;-78
2024/02/05 02:50:02;;;;;;;31.50;5.70;;;;;;;9.82;100.00;101729.00;5011432;28;20049;-77
2024/02/05 02:52:28;;;;;;;36.60;5.97;;;;;;;9.92;100.00;101724.66;5025129;28;20026;-79
2024/02/05 02:54:53;;;;;;;38.00;6.47;;;;;;;9.87;100.00;101732.03;5008915;28;20038;-79
2024/02/05 02:57:19;;;;;;;38.90;6.43;;;;;;;9.88;100.00;101718.09;5010891;28;20080;-78
2024/02/05 02:59:44;;;;;;;39.95;6.13;;;;;;;9.87;100.00;101726.84;5004878;28;20433;-79
2024/02/05 03:02:09;;;;;;;28.65;4.90;;;;;;;9.84;100.00;101723.69;5013022;28;20030;-78
2024/02/05 03:04:35;;;;;;;38.60;7.05;;;;;;;9.90;100.00;101736.94;5007963;28;20448;-78
2024/02/05 03:07:00;;;;;;;28.15;6.05;;;;;;;9.90;100.00;101729.16;5012922;28;20025;-79
2024/02/05 03:09:26;;;;;;;31.10;5.72;;;;;;;9.79;100.00;101733.59;5012173;28;20044;-78
2024/02/05 03:11:52;;;;;;;51.22;6.50;;;;;;;9.86;100.00;101724.38;5012267;28;20030;-79
2024/02/05 03:14:17;;;;;;;28.70;5.28;;;;;;;9.89;100.00;101737.09;5008834;28;20111;-79
2024/02/05 03:16:43;;;;;;;31.55;5.72;;;;;;;9.82;100.00;101726.41;5010854;28;20038;-79
2024/02/05 03:19:09;;;;;;;29.95;4.28;;;;;;;9.75;100.00;101736.44;5014224;28;20038;-78
2024/02/05 03:21:34;;;;;;;38.28;5.43;;;;;;;9.84;100.00;101747.81;5011305;28;20033;-79
2024/02/05 03:23:59;;;;;;;41.50;7.53;;;;;;;9.79;100.00;101737.00;5023366;28;20030;-79
2024/02/05 03:26:25;;;;;;;30.25;5.43;;;;;;;9.80;100.00;101736.06;5011097;28;20060;-78
2024/02/05 03:28:50;;;;;;;34.97;5.40;;;;;;;9.78;100.00;101737.16;5010169;28;20037;-79
2024/02/05 03:31:16;;;;;;;37.22;6.13;;;;;;;9.76;100.00;101737.28;5015447;28;20046;-79
2024/02/05 03:33:41;;;;;;;34.00;5.88;;;;;;;9.70;100.00;101741.19;5012551;28;20025;-78
2024/02/05 03:36:07;;;;;;;38.85;6.25;;;;;;;9.74;100.00;101734.81;5009034;28;20035;-80
2024/02/05 03:38:32;;;;;;;26.85;6.75;;;;;;;9.70;100.00;101737.78;5009835;28;20034;-78
2024/02/05 03:40:58;;;;;;;34.78;6.85;;;;;;;9.69;100.00;101739.53;5008816;28;20057;-79
2024/02/05 03:43:23;;;;;;;33.97;5.63;;;;;;;9.81;100.00;101742.88;4995882;28;20060;-78
2024/02/05 03:45:48;;;;;;;29.58;5.25;;;;;;;9.66;100.00;101737.22;5009846;28;20038;-79
2024/02/05 03:48:14;;;;;;;27.60;6.10;;;;;;;9.64;100.00;101736.50;4992937;28;20096;-78
2024/02/05 03:50:40;;;;;;;50.22;6.63;;;;;;;9.67;100.00;101736.25;5025901;28;20046;-79
2024/02/05 03:53:05;;;;;;;35.42;5.03;;;;;;;9.63;100.00;101737.47;5025875;28;20544;-79
2024/02/05 03:55:31;;;;;;;36.83;5.20;;;;;;;9.67;100.00;101736.25;5008463;28;20038;-79
2024/02/05 03:58:03;;;;;;;39.22;5.45;;;;;;;9.60;100.00;101750.66;5015873;28;20030;-78
2024/02/05 04:00:28;;;;;;;39.15;5.72;;;;;;;9.69;100.00;101742.13;5011862;28;20041;-79
2024/02/05 04:02:54;;;;;;;38.92;5.03;;;;;;;9.72;100.00;101749.66;5011376;28;20091;-78
2024/02/05 04:05:19;;;;;;;37.88;5.25;;;;;;;9.74;100.00;101745.19;5012383;28;20125;-79
2024/02/05 04:07:45;;;;;;;32.13;5.47;;;;;;;9.66;100.00;101750.19;5009546;28;20041;-79
2024/02/05 04:10:10;;;;;;;34.50;5.13;;;;;;;9.60;100.00;101753.25;5008456;28;20067;-81
2024/02/05 04:12:36;;;;;;;35.15;5.75;;;;;;;9.57;100.00;101755.28;5003905;28;20026;-79
2024/02/05 04:15:01;;;;;;;35.83;6.43;;;;;;;9.63;100.00;101757.38;5008324;28;20049;-79
2024/02/05 04:17:27;;;;;;;38.58;6.68;;;;;;;9.61;100.00;101754.09;5010327;28;20029;-79
2024/02/05 04:19:52;;;;;;;34.22;6.65;;;;;;;9.66;100.00;101755.34;5020340;28;20045;-79
2024/02/05 04:22:18;;;;;;;42.55;4.90;;;;;;;9.66;100.00;101754.50;5012682;28;20408;-79
2024/02/05 04:24:44;;;;;;;29.58;5.28;;;;;;;9.60;100.00;101749.84;5005049;28;20515;-79
2024/02/05 04:27:09;;;;;;;34.70;6.22;;;;;;;9.60;100.00;101747.25;4994174;28;20029;-78
2024/02/05 04:29:35;;;;;;;33.25;6.20;;;;;;;9.64;100.00;101746.06;4993778;28;20064;-78
2024/02/05 04:32:01;;;;;;;30.20;5.55;;;;;;;9.61;100.00;101749.72;5011388;28;20036;-78
2024/02/05 04:34:28;;;;;;;43.72;6.53;;;;;;;9.59;100.00;101746.44;5008151;28;20412;-78
2024/02/05 04:36:53;;;;;;;35.63;5.15;;;;;;;9.60;100.00;101744.66;4996351;28;20048;-79
2024/02/05 04:39:20;;;;;;;38.63;5.20;;;;;;;9.66;100.00;101745.00;5008540;28;20038;-79
2024/02/05 04:41:46;;;;;;;30.45;6.10;;;;;;;9.65;100.00;101748.53;4994001;28;20123;-78
2024/02/05 04:44:11;;;;;;;24.67;4.82;;;;;;;9.62;100.00;101751.34;4995645;28;20037;-79
2024/02/05 04:46:37;;;;;;;36.33;6.05;;;;;;;9.58;100.00;101752.56;5010597;28;20030;-80
2024/02/05 04:49:02;;;;;;;33.72;4.72;;;;;;;9.60;100.00;101752.44;5009848;28;20026;-78
2024/02/05 04:51:28;;;;;;;30.10;4.95;;;;;;;9.57;100.00;101752.69;5012931;28;20030;-79
2024/02/05 04:53:54;;;;;;;24.70;5.00;;;;;;;9.60;100.00;101755.03;5009793;28;20495;-78
2024/02/05 04:56:20;;;;;;;40.13;5.95;;;;;;;9.48;100.00;101751.69;5007311;28;20034;-79
2024/02/05 04:58:45;;;;;;;35.45;5.65;;;;;;;9.47;100.00;101750.84;5009094;28;20480;-80
2024/02/05 05:01:11;;;;;;;25.45;5.32;;;;;;;9.59;100.00;101740.44;5007812;28;20080;-78
2024/02/05 05:03:37;;;;;;;29.65;5.60;;;;;;;9.51;100.00;101751.41;5012361;28;20108;-79
2024/02/05 05:06:02;;;;;;;29.05;5.68;;;;;;;9.54;100.00;101743.41;5009359;28;20042;-79
2024/02/05 05:08:28;;;;;;;34.33;6.00;;;;;;;9.60;100.00;101740.31;5009686;28;20042;-78
2024/02/05 05:10:53;;;;;;;35.95;5.40;;;;;;;9.45;100.00;101738.97;5009592;28;20041;-79
2024/02/05 05:13:19;;;;;;;28.63;4.43;;;;;;;9.43;100.00;101740.88;5009886;28;20488;-80
2024/02/05 05:15:48;;;;;;;38.15;5.03;;;;;;;9.41;100.00;101735.00;5021524;28;20040;-78
2024/02/05 05:18:13;;;;;;;34.17;7.13;;;;;;;9.49;100.00;101736.03;4992459;28;20030;-78
2024/02/05 05:20:40;;;;;;;34.13;5.78;;;;;;;9.58;100.00;101737.03;5004181;28;20429;-80
2024/02/05 05:23:05;;;;;;;37.40;5.25;;;;;;;9.55;100.00;101730.34;5004735;28;20417;-78
2024/02/05 05:25:31;;;;;;;28.10;4.35;;;;;;;9.53;100.00;101733.97;5006838;28;20026;-78
2024/02/05 05:27:56;;;;;;;26.60;6.03;;;;;;;9.42;100.00;101731.44;4994829;28;20371;-78
2024/02/05 05:30:22;;;;;;;33.65;4.72;;;;;;;9.43;100.00;101723.56;4995090;28;20049;-78
2024/02/05 05:32:47;;;;;;;28.17;4.55;;;;;;;9.48;100.00;101725.78;5012475;28;20036;-78
2024/02/05 05:35:12;;;;;;;33.40;5.13;;;;;;;9.47;100.00;101726.72;4991064;28;20034;-79
2024/02/05 05:37:40;;;;;;;31.20;5.82;;;;;;;9.42;100.00;101715.91;5006736;28;20536;-78
2024/02/05 05:40:06;;;;;;;34.42;5.50;;;;;;;9.39;100.00;101716.19;5023526;28;20092;-77
2024/02/05 05:42:31;;;;;;;39.78;5.03;;;;;;;9.47;100.00;101717.19;5009909;28;20038;-79
2024/02/05 05:44:57;;;;;;;45.40;5.35;;;;;;;9.42;100.00;101701.22;4991454;28;20030;-78
2024/02/05 05:47:22;;;;;;;32.80;5.20;;;;;;;9.37;100.00;101712.91;5009496;28;20033;-78
2024/02/05 05:49:48;;;;;;;28.95;4.85;;;;;;;9.44;100.00;101714.88;5002505;28;20100;-78
2024/02/05 05:52:13;;;;;;;41.00;5.13;;;;;;;9.49;100.00;101717.91;4989620;28;20037;-78
2024/02/05 05:54:39;;;;;;;33.85;5.22;;;;;;;9.49;100.00;101717.06;4990961;28;21159;-79
2024/02/05 05:57:05;;;;;;;36.88;4.97;;;;;;;9.38;100.00;101720.56;4990883;28;20400;-78
2024/02/05 05:59:31;;;;;;;43.95;7.22;;;;;;;9.41;100.00;101720.28;5008126;28;20034;-78
2024/02/05 06:01:56;;;;;;;37.58;5.13;;;;;;;9.33;100.00;101722.69;4991759;28;20455;-78
2024/02/05 06:04:22;;;;;;;40.28;5.88;;;;;;;9.32;100.00;101724.47;5006056;28;20076;-78
2024/02/05 06:06:48;;;;;;;31.70;5.28;;;;;;;9.31;100.00;101717.63;4997707;28;20025;-78
2024/02/05 06:09:18;;;;;;;32.90;5.15;;;;;;;9.30;100.00;101710.81;5011108;28;20133;-78
2024/02/05 06:11:45;;;;;;;40.53;6.45;;;;;;;9.29;100.00;101709.19;5009179;28;20053;-78
2024/02/05 06:14:10;;;;;;;32.75;5.90;;;;;;;9.37;100.00;101705.16;4989734;28;20410;-78
2024/02/05 06:16:36;;;;;;;35.75;5.45;;;;;;;9.27;100.00;101720.59;4997198;28;20088;-79
2024/02/05 06:19:01;;;;;;;26.95;5.78;;;;;;;9.29;100.00;101703.19;5009512;28;20092;-78
2024/02/05 06:21:27;;;;;;;27.77;4.80;;;;;;;9.24;100.00;101710.50;5034546;28;20671;-78
2024/02/05 06:23:52;;;;;;;32.70;6.30;;;;;;;9.20;100.00;101712.50;5018151;28;20050;-79
2024/02/05 06:26:18;;;;;;;38.03;4.65;;;;;;;9.19;100.00;101699.69;5010376;28;20069;-78
2024/02/05 06:28:43;;;;;;;28.23;5.07;;;;;;;9.24;100.00;101708.72;5029061;28;20046;-78
2024/02/05 06:31:10;;;;;;;35.45;5.07;;;;;;;9.23;100.00;101711.44;4994759;28;20037;-79
2024/02/05 06:33:35;;;;;;;33.75;5.05;;;;;;;9.33;100.00;101701.97;5015388;28;20034;-78
2024/02/05 06:36:01;;;;;;;31.33;5.68;;;;;;;9.25;100.00;101699.19;5006729;28;20500;-79
2024/02/05 06:38:26;;;;;;;29.08;5.30;;;;;;;9.24;100.00;101692.38;4990083;28;20080;-78
2024/02/05 06:40:52;;;;;;;22.48;4.20;;;;;;;9.21;100.00;101706.41;4996412;28;20479;-78
2024/02/05 06:43:17;;;;;;;32.35;6.13;;;;;;;9.29;100.00;101703.19;5015990;28;20034;-79
2024/02/05 06:45:43;;;;;;;41.80;5.32;;;;;;;9.24;100.00;101706.13;4993262;28;20038;-78
2024/02/05 06:48:08;;;;;;;30.45;4.57;;;;;;;9.21;100.00;101708.16;5012222;28;20392;-79
2024/02/05 06:50:34;;;;;;;29.13;4.32;;;;;;;9.22;100.00;101702.03;4995058;28;20034;-79
2024/02/05 06:52:59;;;;;;;40.50;5.05;;;;;;;9.19;100.00;101712.63;5008638;28;20109;-78
2024/02/05 06:55:25;;;;;;;29.75;4.60;;;;;;;9.23;100.00;101714.03;5009817;28;20037;-78
2024/02/05 06:57:50;;;;;;;20.70;4.65;;;;;;;9.12;100.00;101707.97;4986727;28;20030;-78
2024/02/05 07:00:16;;;;;;;29.55;4.95;;;;;;;9.18;100.00;101709.22;4996027;28;20041;-77
2024/02/05 07:02:41;;;;;;;29.27;4.80;;;;;;;9.21;100.00;101713.31;5011903;28;20115;-77
2024/02/05 07:05:09;;;;;;;36.58;4.95;;;;;;;9.17;100.00;101715.34;4994351;28;20117;-78
2024/02/05 07:07:34;;;;;;;28.08;5.18;;;;;;;9.09;100.00;101710.78;5012558;28;20038;-78
2024/02/05 07:10:00;;;;;;;28.20;5.80;;;;;;;9.08;100.00;101709.16;4999863;28;20040;-78
2024/02/05 07:12:26;;;;;;;26.58;6.15;;;;;;;9.20;100.00;101712.50;4993726;28;20041;-80
2024/02/05 07:14:51;;;;;;;28.83;4.20;;;;;;;9.14;100.00;101710.44;4991818;28;20038;-78
2024/02/05 07:17:32;;;;;;;31.30;4.47;;;;;;;9.18;100.00;101708.41;5095641;27;21016;-72
2024/02/05 07:19:59;;;;;;;31.33;5.65;;;;;;;9.14;100.00;101713.81;5055511;28;20484;-71
2024/02/05 07:22:25;;;;;;;33.10;5.68;;;;;;;9.06;100.00;101710.22;5051121;28;20042;-70
2024/02/05 07:24:50;;;;;;;31.50;5.05;;;;;;;9.11;100.00;101714.06;5029094;28;20045;-71
2024/02/05 07:27:16;;;;;;;30.38;4.50;;;;;;;9.05;100.00;101711.97;5039172;28;20439;-72
2024/02/05 07:29:42;;;;;;;33.22;6.00;;;;;;;9.14;100.00;101716.41;5039672;28;20064;-71
2024/02/05 07:32:08;;;;;;;34.72;4.85;;;;;;;9.15;100.00;101730.16;5037852;28;20036;-72
2024/02/05 07:34:33;;;;;;;33.45;4.40;;;;;;;9.04;100.00;101740.56;5039414;28;20064;-72
2024/02/05 07:36:59;;;;;;;46.20;8.50;;;;;;;9.04;100.00;101722.44;5069734;28;20021;-72
2024/02/05 07:39:24;;;;;;;24.15;6.30;;;;;;;9.15;100.00;101730.16;5043605;28;20044;-71
2024/02/05 07:41:50;;;;;;;29.77;4.10;;;;;;;9.08;100.00;101735.03;5042734;28;20431;-71
2024/02/05 07:44:15;;;;;;;33.85;5.57;;;;;;;9.17;100.00;101738.63;5038112;28;20515;-71
2024/02/05 07:46:40;;;;;;;28.67;5.95;;;;;;;9.13;100.00;101745.00;5040868;28;20021;-72
2024/02/05 07:49:07;;;;;;;28.40;4.45;;;;;;;9.04;100.00;101740.56;5039420;28;20771;-71
2024/02/05 07:51:33;;;;;;;31.98;5.78;;;;;;;9.09;100.00;101749.59;5043194;28;20087;-71
2024/02/05 07:53:58;;;;;;;36.25;5.13;;;;;;;9.11;100.00;101736.53;5019180;28;20033;-71
2024/02/05 07:56:23;;;;;;;36.38;6.90;;;;;;;9.05;100.00;101745.63;5005940;28;20042;-72
2024/02/05 07:58:49;;;;;;;35.22;6.40;;;;;;;9.09;100.00;101746.19;5019775;28;20038;-71
2024/02/05 08:01:15;;;;;;;33.15;4.80;;;;;;;9.13;100.00;101748.41;5021633;28;20556;-72
2024/02/05 08:03:40;;;;;;;32.17;5.32;;;;;;;9.10;100.00;101753.84;5042834;28;20029;-72
2024/02/05 08:06:07;;;;;;;31.35;5.40;;;;;;;9.10;100.00;101750.44;5038740;28;20029;-72
2024/02/05 08:08:33;;;;;;;29.08;4.95;;;;;;;9.07;100.00;101756.66;5040662;28;20715;-72
2024/02/05 08:10:59;;;;;;;29.35;5.60;;;;;;;9.18;100.00;101755.81;5017998;28;20030;-72
2024/02/05 08:13:24;;;;;;;31.45;5.63;;;;;;;9.20;100.00;101761.69;5019599;28;20037;-71
2024/02/05 08:15:50;;;;;;;23.65;5.45;;;;;;;9.19;100.00;101757.44;5036104;28;20107;-71
2024/02/05 08:18:15;;;;;;;31.25;5.88;;;;;;;9.19;100.00;101754.03;5041363;28;20072;-71
2024/02/05 08:20:41;;;;;;;31.63;5.57;;;;;;;9.23;100.00;101747.66;5040725;28;20040;-72
2024/02/05 08:23:07;;;;;;;37.03;5.55;;;;;;;9.22;100.00;101752.03;5022828;28;20163;-71
2024/02/05 08:25:33;;;;;;;33.28;7.38;;;;;;;9.15;100.00;101767.25;5026931;28;20041;-71
2024/02/05 08:28:00;;;;;;;32.72;5.15;;;;;;;9.18;100.00;101760.97;5014573;28;20034;-71
2024/02/05 08:30:26;;;;;;;25.83;5.35;;;;;;;9.20;100.00;101761.69;5008741;28;20428;-71
2024/02/05 08:32:51;;;;;;;31.55;4.68;;;;;;;9.25;100.00;101766.47;5005073;28;20038;-72
2024/02/05 08:35:17;;;;;;;20.75;4.50;;;;;;;9.31;100.00;101766.81;5002439;28;20045;-72
2024/02/05 08:37:42;;;;;;;32.45;5.10;;;;;;;9.24;100.00;101763.06;5004661;28;20038;-72
2024/02/05 08:40:08;;;;;;;29.30;5.75;;;;;;;9.28;100.00;101756.69;5017874;28;20117;-71
2024/02/05 08:42:35;;;;;;;21.23;4.78;;;;;;;9.35;100.00;101744.09;5023814;28;20029;-71
2024/02/05 08:45:01;;;;;;;45.03;5.28;;;;;;;9.46;100.00;101756.97;5017247;28;20530;-71
2024/02/05 08:47:26;;;;;;;37.80;5.20;;;;;;;9.45;100.00;101757.91;5007841;28;20033;-72
2024/02/05 08:49:52;;;;;;;43.72;6.90;;;;;;;9.43;100.00;101754.63;5012682;28;20041;-71
2024/02/05 08:52:17;;;;;;;44.72;6.00;;;;;;;9.34;100.00;101764.00;5057870;28;20566;-71
2024/02/05 08:54:43;;;;;;;37.40;5.65;;;;;;;9.36;100.00;101756.06;5023506;28;20037;-72
2024/02/05 08:57:08;;;;;;;33.30;4.57;;;;;;;9.52;100.00;101756.47;5036424;28;20030;-71
2024/02/05 08:59:34;;;;;;;24.60;4.55;;;;;;;9.52;100.00;101756.47;5006961;28;20041;-71
2024/02/05 09:02:00;;;;;;;31.70;5.53;;;;;;;9.50;100.00;101749.78;5013312;28;20064;-71
2024/02/05 09:04:25;;;;;;;38.72;5.80;;;;;;;9.57;100.00;101742.31;5014843;28;20112;-72
2024/02/05 09:06:51;;;;;;;44.30;6.15;;;;;;;9.53;100.00;101744.34;5029419;28;20474;-71
2024/02/05 09:09:18;;;;;;;37.35;6.05;;;;;;;9.50;100.00;101744.59;5016841;28;20863;-71
2024/02/05 09:11:44;;;;;;;33.03;5.20;;;;;;;9.54;100.00;101743.41;4993881;28;20075;-71
2024/02/05 09:14:09;;;;;;;38.80;5.93;;;;;;;9.59;100.00;101755.97;4989708;28;20091;-71
2024/02/05 09:16:35;;;;;;;34.47;6.85;;;;;;;9.57;100.00;101740.56;5025131;28;20033;-71
2024/02/05 09:19:01;;;;;;;37.03;6.18;;;;;;;9.60;100.00;101755.03;5024686;28;20526;-72
2024/02/05 09:21:26;;;;;;;28.63;4.97;;;;;;;9.69;100.00;101754.28;5056514;28;20067;-71
2024/02/05 09:23:52;;;;;;;39.10;5.38;;;;;;;9.69;100.00;101754.28;5022645;28;20025;-72
2024/02/05 09:26:17;;;;;;;31.55;5.30;;;;;;;9.68;100.00;101740.50;5024187;28;20040;-71
2024/02/05 09:28:44;;;;;;;29.42;4.78;;;;;;;9.71;100.00;101742.81;5026924;28;20064;-72
2024/02/05 09:31:10;;;;;;;28.08;5.38;;;;;;;9.64;100.00;101741.69;5025571;28;20034;-72
2024/02/05 09:33:36;;;;;;;39.00;4.93;;;;;;;9.62;100.00;101745.38;5028807;28;20049;-71
2024/02/05 09:36:01;;;;;;;35.50;4.60;;;;;;;9.79;100.00;101741.38;5004659;28;20030;-71
2024/02/05 09:38:27;;;;;;;29.17;4.68;;;;;;;9.83;100.00;101734.97;5004947;28;20088;-72
2024/02/05 09:41:02;;;;;;;26.20;5.07;;;;;;;9.87;100.00;101739.81;5023173;28;20063;-71
2024/02/05 09:43:28;;;;;;;30.88;5.75;;;;;;;9.83;100.00;101742.75;5030338;28;20044;-71
2024/02/05 09:46:03;;;;;;;30.52;5.00;;;;;;;9.75;100.00;101746.00;5012637;28;20026;-72
2024/02/05 09:48:32;;;;;;;32.83;5.78;;;;;;;9.91;100.00;101728.22;5011894;28;20046;-72
2024/02/05 09:50:57;;;;;;;25.27;5.00;;;;;;;9.83;99.22;101720.28;5025058;28;21538;-72
2024/02/05 09:53:23;;;;;;;47.10;6.22;;;;;;;9.77;99.33;101723.38;5012037;28;20124;-72
2024/02/05 09:55:49;;;;;;;36.28;7.13;;;;;;;9.90;99.42;101736.94;5003926;28;20089;-71
2024/02/05 09:58:15;;;;;;;29.38;5.03;;;;;;;9.88;99.13;101719.88;5008956;28;20480;-71
2024/02/05 10:00:40;;;;;;;34.30;5.20;;;;;;;9.90;99.44;101731.75;5018393;28;20048;-71
2024/02/05 10:03:07;;;;;;;33.67;4.82;;;;;;;10.01;97.81;101730.84;5026056;28;20026;-72
2024/02/05 10:05:34;;;;;;;35.30;6.43;;;;;;;9.97;98.92;101731.25;5008740;28;20084;-72
2024/02/05 10:08:00;;;;;;;27.67;4.93;;;;;;;10.13;98.30;101729.00;5034779;28;20030;-71
2024/02/05 10:10:27;;;;;;;27.20;4.68;;;;;;;10.12;98.10;101719.59;5018526;28;20045;-72
2024/02/05 10:12:54;;;;;;;45.38;5.00;;;;;;;10.22;97.62;101724.81;5023691;28;20030;-71
2024/02/05 10:15:20;;;;;;;25.15;4.45;;;;;;;10.00;97.26;101715.44;5036901;28;20041;-72
2024/02/05 10:17:46;;;;;;;40.20;4.95;;;;;;;10.04;97.25;101728.00;5011618;23;20053;-72
2024/02/05 10:20:12;;;;;;;34.40;5.15;;;;;;;10.17;96.81;101719.19;5005676;28;20041;-71
2024/02/05 10:22:47;;;;;;;36.00;4.78;;;;;;;10.21;96.21;101725.75;5008616;28;20114;-72
2024/02/05 10:25:14;;;;;;;31.08;5.30;;;;;;;10.13;95.71;101726.41;5025007;28;20045;-73
2024/02/05 10:27:41;;;;;;;26.55;4.50;;;;;;;10.06;96.18;101730.47;4992944;28;20042;-71
2024/02/05 10:30:07;;;;;;;25.75;4.57;;;;;;;10.12;96.45;101732.53;4977288;28;20030;-72
2024/02/05 10:32:33;;;;;;;26.75;4.70;;;;;;;10.22;95.74;101741.16;4972354;28;20034;-71
2024/02/05 10:34:59;;;;;;;37.58;4.93;;;;;;;10.29;95.63;101729.34;4969395;28;20104;-72
2024/02/05 10:37:24;;;;;;;25.95;4.40;;;;;;;10.23;95.12;101727.28;4967621;28;20058;-72
2024/02/05 10:39:50;;;;;;;25.85;4.45;;;;;;;10.30;95.66;101725.84;4976630;28;20058;-71
2024/02/05 10:42:16;;;;;;;38.25;4.45;;;;;;;10.31;94.10;101734.41;5003089;28;20058;-72
2024/02/05 10:44:42;;;;;;;26.40;4.70;;;;;;;10.20;94.02;101727.53;4986064;28;20041;-72
2024/02/05 10:47:16;;;;;;;24.27;4.03;;;;;;;10.29;94.15;101733.69;5002601;28;20035;-72
2024/02/05 10:49:42;;;;;;;29.83;5.13;;;;;;;10.21;92.61;101724.00;5001533;28;20039;-72
2024/02/05 10:52:09;;;;;;;29.10;4.68;;;;;;;10.19;93.59;101720.72;4988501;28;20026;-73
2024/02/05 10:54:37;;;;;;;24.73;4.07;;;;;;;10.14;93.86;101736.63;4985878;28;20042;-72
2024/02/05 10:57:04;;;;;;;23.35;3.97;;;;;;;10.21;93.42;101739.53;4973868;28;20400;-71
2024/02/05 10:59:29;;;;;;;36.42;6.20;;;;;;;10.17;94.43;101709.66;4998941;28;20124;-71
2024/02/05 11:02:24;;;;;;;27.08;4.80;;;;;;;10.31;93.83;101713.69;4999647;28;20046;-72
2024/02/05 11:04:51;;;;;;;26.52;4.55;;;;;;;10.25;92.72;101712.41;4978655;28;20038;-72
2024/02/05 11:07:20;;;;;;;22.95;5.55;;;;;;;10.32;93.51;101700.59;4966248;28;20509;-71
2024/02/05 11:09:48;;;;;;;29.50;4.80;;;;;;;10.35;92.94;101722.84;4984214;28;20039;-72
2024/02/05 11:12:15;;;;;;;26.95;3.80;;;;;;;10.39;91.48;101713.03;4987674;28;20125;-72